Time;durP1;ratioP1;P1;durP2;ratioP2;P2;SDS_P1;SDS_P2;PMS_P1;PMS_P2;Temp;Humidity;BMP_temperature;BMP_pressure;BME280_temperature;BME280_humidity;BME280_pressure;Samples;Min_cycle;Max_cycle;Signal;HPM_P1;HPM_P2
2022/12/01 00:01:27;;;;;;;55.67;30.95;;;0.90;99.90;;;;;;4998549;28;20206;-84
2022/12/01 00:03:54;;;;;;;44.00;27.67;;;1.20;99.90;;;;;;5026496;28;20202;-83
2022/12/01 00:06:21;;;;;;;49.70;30.42;;;0.80;99.90;;;;;;5026520;28;20190;-82
2022/12/01 00:11:42;;;;;;;54.75;29.70;;;0.80;99.90;;;;;;5026864;28;20194;-81
2022/12/01 00:14:09;;;;;;;49.05;29.83;;;2.00;99.90;;;;;;5024339;28;20252;-83
2022/12/01 00:16:37;;;;;;;44.35;27.48;;;0.60;99.90;;;;;;5011596;28;20228;-81
2022/12/01 00:19:04;;;;;;;43.42;25.70;;;0.80;99.90;;;;;;5024645;28;20210;-86
2022/12/01 00:21:34;;;;;;;45.08;26.30;;;1.60;99.90;;;;;;5006174;28;20411;-83
2022/12/01 00:24:01;;;;;;;52.83;29.85;;;0.60;99.90;;;;;;5024784;28;20205;-82
2022/12/01 00:26:28;;;;;;;44.70;27.00;;;0.70;99.90;;;;;;5024236;28;20509;-82
2022/12/01 00:28:58;;;;;;;49.90;26.25;;;0.90;99.90;;;;;;5029927;28;20225;-88
2022/12/01 00:31:26;;;;;;;54.42;28.38;;;2.00;99.90;;;;;;5010805;28;20210;-82
2022/12/01 00:33:54;;;;;;;50.55;28.88;;;0.90;99.90;;;;;;5020651;28;20404;-82
2022/12/01 00:36:23;;;;;;;48.58;27.33;;;1.10;99.90;;;;;;5029756;28;20239;-83
2022/12/01 00:38:55;;;;;;;51.13;28.85;;;2.10;99.90;;;;;;5024262;28;20510;-83
2022/12/01 00:41:24;;;;;;;49.22;29.05;;;0.80;99.90;;;;;;5011444;28;20201;-85
2022/12/01 00:43:55;;;;;;;49.83;29.42;;;0.90;99.90;;;;;;5024555;28;20198;-87
2022/12/01 00:46:22;;;;;;;42.60;26.60;;;0.70;99.90;;;;;;5013957;28;20212;-83
2022/12/01 00:48:51;;;;;;;51.50;29.17;;;1.00;99.90;;;;;;5023513;28;20260;-83
2022/12/01 00:51:19;;;;;;;48.35;27.40;;;0.80;99.90;;;;;;5032132;28;20298;-82
2022/12/01 00:53:48;;;;;;;41.17;25.42;;;2.00;99.90;;;;;;5030134;28;20198;-87
2022/12/01 00:56:15;;;;;;;48.88;27.85;;;0.60;99.90;;;;;;5014602;28;20202;-83
2022/12/01 00:58:42;;;;;;;41.90;24.90;;;1.30;99.90;;;;;;5029100;28;20237;-82
2022/12/01 01:01:09;;;;;;;41.83;25.17;;;0.90;99.90;;;;;;5037003;28;20210;-88
2022/12/01 01:03:36;;;;;;;42.50;26.42;;;0.80;99.90;;;;;;5022762;28;20193;-82
2022/12/01 01:06:10;;;;;;;46.05;26.45;;;1.60;99.90;;;;;;5039293;28;20232;-85
2022/12/01 01:08:39;;;;;;;48.00;28.70;;;0.70;99.90;;;;;;5016471;28;20232;-85
2022/12/01 01:11:08;;;;;;;44.92;29.30;;;1.70;99.90;;;;;;5005379;28;20474;-81
2022/12/01 01:13:36;;;;;;;46.38;27.83;;;0.50;99.90;;;;;;5013597;28;20212;-85
2022/12/01 01:16:14;;;;;;;43.00;27.38;;;0.50;99.90;;;;;;5031486;28;20210;-84
2022/12/01 01:18:43;;;;;;;45.53;28.63;;;0.40;99.90;;;;;;5030277;28;20214;-82
2022/12/01 01:21:13;;;;;;;39.22;28.08;;;0.40;99.90;;;;;;5030724;28;20311;-85
2022/12/01 01:23:41;;;;;;;53.72;28.60;;;0.30;99.90;;;;;;5013586;28;20221;-90
2022/12/01 01:26:18;;;;;;;42.40;25.83;;;0.50;99.90;;;;;;5028619;28;20225;-85
2022/12/01 01:28:46;;;;;;;39.00;24.30;;;0.90;99.90;;;;;;5012572;28;20540;-81
2022/12/01 01:31:22;;;;;;;45.47;30.00;;;0.30;99.90;;;;;;5030770;28;20228;-89
2022/12/01 01:33:51;;;;;;;52.30;29.45;;;0.30;99.90;;;;;;5015951;28;20202;-84
2022/12/01 01:36:19;;;;;;;39.67;27.35;;;2.00;99.90;;;;;;5026023;28;20213;-88
2022/12/01 01:38:50;;;;;;;47.42;27.42;;;1.50;99.90;;;;;;5032276;28;20285;-84
2022/12/01 01:41:18;;;;;;;43.13;25.13;;;0.50;99.90;;;;;;5009650;28;20208;-85
2022/12/01 01:43:47;;;;;;;39.08;26.08;;;0.60;99.90;;;;;;5007727;28;20250;-84
2022/12/01 01:46:16;;;;;;;38.25;23.25;;;0.40;99.90;;;;;;5024102;28;20413;-85
2022/12/01 01:48:55;;;;;;;45.00;27.70;;;1.20;99.90;;;;;;5022904;28;20225;-81
2022/12/01 01:51:32;;;;;;;42.67;27.58;;;0.40;99.90;;;;;;5030970;28;20551;-82
2022/12/01 01:54:16;;;;;;;42.40;25.92;;;0.40;99.90;;;;;;5015127;28;20197;-82
2022/12/01 01:56:45;;;;;;;39.42;24.40;;;0.50;99.90;;;;;;5009384;28;20190;-86
2022/12/01 01:59:16;;;;;;;44.92;28.00;;;0.60;99.90;;;;;;5015364;28;20228;-82
2022/12/01 02:01:47;;;;;;;46.45;27.25;;;1.30;99.90;;;;;;5029253;28;20198;-83
2022/12/01 02:04:15;;;;;;;44.63;27.17;;;0.70;99.90;;;;;;5010352;28;20253;-82
2022/12/01 02:06:42;;;;;;;39.90;25.02;;;0.90;99.90;;;;;;5011841;28;20197;-83
2022/12/01 02:09:11;;;;;;;38.08;21.92;;;0.90;99.90;;;;;;5011161;28;20230;-86
2022/12/01 02:11:49;;;;;;;44.53;25.13;;;1.80;99.90;;;;;;4993911;28;20226;-86
2022/12/01 02:14:46;;;;;;;39.10;23.40;;;2.30;99.90;;;;;;5023816;28;20205;-81
2022/12/01 02:17:33;;;;;;;39.78;25.85;;;0.90;99.90;;;;;;5026313;28;20198;-82
2022/12/01 02:20:34;;;;;;;42.78;27.13;;;1.30;99.90;;;;;;5016480;28;20201;-84
2022/12/01 02:23:10;;;;;;;40.28;26.35;;;1.40;99.90;;;;;;5009275;28;20222;-82
2022/12/01 02:25:50;;;;;;;40.40;24.70;;;1.20;99.90;;;;;;5027957;28;20220;-84
2022/12/01 02:28:43;;;;;;;38.13;23.60;;;1.70;99.90;;;;;;5030107;28;20224;-84
2022/12/01 02:31:24;;;;;;;41.33;23.50;;;1.00;99.90;;;;;;5006817;28;20217;-85
2022/12/01 02:34:20;;;;;;;40.28;25.85;;;0.80;99.90;;;;;;5015447;28;20212;-83
2022/12/01 02:37:00;;;;;;;35.50;22.88;;;0.90;99.90;;;;;;5018743;28;20209;-82
2022/12/01 02:39:40;;;;;;;46.17;25.20;;;1.60;99.90;;;;;;5027578;28;20201;-81
2022/12/01 02:42:53;;;;;;;43.88;24.13;;;1.20;99.90;;;;;;5023351;28;20202;-83
2022/12/01 02:45:35;;;;;;;41.95;25.63;;;1.20;99.90;;;;;;5027434;28;20241;-84
2022/12/01 02:48:08;;;;;;;37.25;24.50;;;1.40;99.90;;;;;;5024026;28;20209;-83
2022/12/01 02:50:38;;;;;;;37.50;23.33;;;1.40;99.90;;;;;;5011297;28;20536;-85
2022/12/01 02:53:09;;;;;;;36.58;23.88;;;1.60;99.90;;;;;;5012164;28;20244;-83
2022/12/01 02:55:36;;;;;;;46.10;26.17;;;1.30;99.90;;;;;;5025774;28;20202;-85
2022/12/01 02:58:13;;;;;;;38.72;23.10;;;1.00;99.90;;;;;;5010894;28;20225;-84
2022/12/01 03:01:00;;;;;;;33.75;23.77;;;1.00;99.90;;;;;;5002189;28;20201;-81
2022/12/01 03:03:56;;;;;;;43.70;26.23;;;1.00;99.90;;;;;;5014430;28;20269;-84
2022/12/01 03:06:48;;;;;;;37.67;24.52;;;1.00;99.90;;;;;;5007197;28;20271;-82
2022/12/01 03:09:21;;;;;;;38.95;25.23;;;1.10;99.90;;;;;;5022889;28;20244;-84
2022/12/01 03:12:20;;;;;;;34.97;23.70;;;1.10;99.90;;;;;;5021125;28;20252;-83
2022/12/01 03:15:34;;;;;;;39.67;23.60;;;1.00;99.90;;;;;;5010911;28;20350;-81
2022/12/01 03:18:29;;;;;;;35.20;22.42;;;0.90;99.90;;;;;;4981537;28;20212;-82
2022/12/01 03:21:05;;;;;;;40.45;25.20;;;0.70;99.90;;;;;;5027361;28;20367;-82
2022/12/01 03:23:38;;;;;;;37.35;23.80;;;0.60;99.90;;;;;;5026718;28;20410;-84
2022/12/01 03:26:08;;;;;;;40.38;25.05;;;0.80;99.90;;;;;;5011093;28;20202;-86
2022/12/01 03:28:41;;;;;;;41.67;24.95;;;1.10;99.90;;;;;;5010613;28;20231;-82
2022/12/01 03:31:13;;;;;;;46.65;27.10;;;0.70;99.90;;;;;;5006443;28;20194;-84
2022/12/01 03:33:53;;;;;;;37.25;24.25;;;0.70;99.90;;;;;;5011759;28;20221;-83
2022/12/01 03:36:27;;;;;;;39.53;25.67;;;0.80;99.90;;;;;;5008900;28;20549;-87
2022/12/01 03:39:01;;;;;;;39.08;23.35;;;0.90;99.90;;;;;;5030616;28;20204;-83
2022/12/01 03:41:36;;;;;;;36.67;23.33;;;0.90;99.90;;;;;;5031174;28;20219;-86
2022/12/01 03:44:13;;;;;;;46.65;25.70;;;0.90;99.90;;;;;;5031450;28;20207;-83
2022/12/01 03:46:49;;;;;;;39.60;24.30;;;1.40;99.90;;;;;;5024420;28;20219;-83
2022/12/01 03:49:17;;;;;;;48.58;26.45;;;1.10;99.90;;;;;;5030176;28;20565;-86
2022/12/01 03:51:54;;;;;;;47.50;29.85;;;1.70;99.90;;;;;;5011785;28;20225;-82
2022/12/01 03:54:48;;;;;;;39.83;23.15;;;1.20;99.90;;;;;;5029002;28;20243;-85
2022/12/01 03:57:24;;;;;;;46.42;25.15;;;1.20;99.90;;;;;;5031332;28;20224;-86
2022/12/01 03:59:53;;;;;;;39.33;24.63;;;1.40;99.90;;;;;;5012411;28;20193;-82
2022/12/01 04:02:24;;;;;;;40.28;24.90;;;1.10;99.90;;;;;;5010672;28;20441;-83
2022/12/01 04:04:51;;;;;;;41.45;24.25;;;1.10;99.90;;;;;;5009304;28;20266;-82
2022/12/01 04:07:21;;;;;;;46.22;28.48;;;1.20;99.90;;;;;;5005738;28;20256;-82
2022/12/01 04:09:48;;;;;;;41.42;27.23;;;1.70;99.90;;;;;;5009622;28;20232;-83
2022/12/01 04:12:28;;;;;;;40.15;25.33;;;1.10;99.90;;;;;;4985248;28;20229;-87
2022/12/01 04:14:57;;;;;;;41.75;25.70;;;1.70;99.90;;;;;;4999625;28;20224;-87
2022/12/01 04:17:26;;;;;;;43.25;25.88;;;1.20;99.90;;;;;;5012620;28;20522;-84
2022/12/01 04:19:53;;;;;;;47.28;24.98;;;1.20;99.90;;;;;;5011762;28;20204;-82
2022/12/01 04:22:20;;;;;;;44.25;27.75;;;1.30;99.90;;;;;;5026848;28;20224;-85
2022/12/01 04:24:47;;;;;;;40.90;26.00;;;1.30;99.90;;;;;;5008071;28;20186;-84
2022/12/01 04:27:14;;;;;;;47.55;27.20;;;1.30;99.90;;;;;;5025092;28;20213;-83
2022/12/01 04:29:41;;;;;;;37.50;24.73;;;1.30;99.90;;;;;;5009804;28;20225;-83
2022/12/01 04:32:08;;;;;;;47.88;30.05;;;1.20;99.90;;;;;;5026867;28;20498;-83
2022/12/01 04:34:35;;;;;;;44.97;27.02;;;1.50;99.90;;;;;;5026731;28;20221;-82
2022/12/01 04:37:04;;;;;;;43.70;26.70;;;2.70;99.90;;;;;;5018514;28;20202;-84
2022/12/01 04:39:33;;;;;;;47.08;26.73;;;1.40;99.90;;;;;;5008136;28;20198;-85
2022/12/01 04:42:00;;;;;;;38.28;24.92;;;2.50;99.90;;;;;;5027294;28;20209;-85
2022/12/01 04:44:27;;;;;;;47.67;28.08;;;1.20;99.90;;;;;;5025054;28;20205;-88
2022/12/01 04:47:02;;;;;;;46.58;28.38;;;1.10;99.90;;;;;;4999807;28;20248;-90
2022/12/01 04:49:30;;;;;;;39.92;26.70;;;0.70;99.90;;;;;;5010329;28;20248;-84
2022/12/01 04:51:57;;;;;;;43.72;28.73;;;2.10;99.90;;;;;;5026470;28;20194;-83
2022/12/01 04:54:26;;;;;;;45.28;27.73;;;1.30;99.90;;;;;;5033365;28;20194;-85
2022/12/01 04:56:57;;;;;;;53.78;29.60;;;1.20;99.90;;;;;;5013142;28;20183;-85
2022/12/01 04:59:24;;;;;;;54.97;29.42;;;1.30;99.90;;;;;;5035447;28;20194;-86
2022/12/01 05:01:51;;;;;;;42.92;26.95;;;1.30;99.90;;;;;;5015336;28;20206;-84
2022/12/01 05:04:18;;;;;;;53.88;30.40;;;1.40;99.90;;;;;;5014677;28;20229;-85
2022/12/01 05:06:46;;;;;;;48.22;32.03;;;1.50;99.90;;;;;;5012558;28;20254;-86
2022/12/01 05:09:15;;;;;;;56.88;28.52;;;1.40;99.90;;;;;;5030883;28;20206;-86
2022/12/01 05:11:44;;;;;;;47.70;28.88;;;1.30;99.90;;;;;;5034903;28;20277;-87
2022/12/01 05:14:11;;;;;;;49.03;27.38;;;1.30;99.90;;;;;;5038215;28;20197;-87
2022/12/01 05:16:38;;;;;;;51.55;29.73;;;1.50;99.90;;;;;;5037449;28;20193;-85
2022/12/01 05:21:52;;;;;;;46.63;29.20;;;2.60;99.90;;;;;;5038104;28;20240;-89
2022/12/01 05:24:19;;;;;;;50.17;30.15;;;1.30;99.90;;;;;;5022699;28;20244;-84
2022/12/01 05:26:46;;;;;;;45.70;30.13;;;1.30;99.90;;;;;;5039094;28;20209;-84
2022/12/01 05:29:13;;;;;;;43.22;27.10;;;1.30;99.90;;;;;;5025891;28;20203;-88
2022/12/01 05:31:40;;;;;;;45.33;30.33;;;2.80;99.90;;;;;;5018200;28;20234;-85
2022/12/01 05:34:08;;;;;;;45.00;31.52;;;1.20;99.90;;;;;;5031970;28;20516;-84
2022/12/01 05:36:35;;;;;;;42.13;27.70;;;2.20;99.90;;;;;;5010586;28;20202;-82
2022/12/01 05:39:03;;;;;;;48.50;28.88;;;2.50;99.90;;;;;;5028146;28;20201;-87
2022/12/01 05:41:30;;;;;;;53.50;30.45;;;1.30;99.90;;;;;;5010896;28;20398;-81
2022/12/01 05:43:58;;;;;;;49.70;28.85;;;1.30;99.90;;;;;;5005384;28;20217;-83
2022/12/01 05:46:25;;;;;;;45.05;28.02;;;1.50;99.90;;;;;;5026227;28;20437;-82
2022/12/01 05:48:53;;;;;;;46.45;26.95;;;1.40;99.90;;;;;;5027160;28;20232;-83
2022/12/01 05:51:20;;;;;;;41.22;26.50;;;1.50;99.90;;;;;;5028573;28;20239;-81
2022/12/01 05:53:47;;;;;;;46.65;28.55;;;1.60;99.90;;;;;;5002619;28;20206;-81
2022/12/01 05:56:15;;;;;;;43.22;27.63;;;1.60;99.90;;;;;;5023297;28;20251;-87
2022/12/01 05:58:44;;;;;;;48.03;27.85;;;1.80;99.90;;;;;;5027048;28;20217;-82
2022/12/01 06:01:11;;;;;;;48.85;29.55;;;1.70;99.90;;;;;;5005845;28;20248;-87
2022/12/01 06:03:38;;;;;;;46.25;26.17;;;2.50;99.90;;;;;;5034888;28;20205;-83
2022/12/01 06:06:05;;;;;;;43.70;29.63;;;2.10;99.90;;;;;;4998913;28;20225;-83
2022/12/01 06:08:32;;;;;;;43.70;27.23;;;1.50;99.90;;;;;;5023231;28;20201;-88
2022/12/01 06:11:04;;;;;;;42.78;26.13;;;1.50;99.90;;;;;;5014520;28;20421;-80
2022/12/01 06:13:40;;;;;;;48.65;27.50;;;1.50;99.90;;;;;;5003196;28;20225;-85
2022/12/01 06:16:23;;;;;;;44.30;29.50;;;1.50;99.90;;;;;;5031997;28;20201;-83
2022/12/01 06:18:52;;;;;;;47.08;29.10;;;1.40;99.90;;;;;;5025693;28;20202;-84
2022/12/01 06:21:22;;;;;;;47.85;26.80;;;1.50;99.90;;;;;;5030876;28;20209;-82
2022/12/01 06:23:54;;;;;;;48.28;30.95;;;2.10;99.90;;;;;;5017169;28;20202;-90
2022/12/01 06:26:35;;;;;;;39.20;26.73;;;2.20;99.90;;;;;;5014728;28;20210;-84
2022/12/01 06:29:02;;;;;;;40.47;26.70;;;2.80;99.90;;;;;;5008673;28;20198;-83
2022/12/01 06:31:30;;;;;;;41.90;27.95;;;2.10;99.90;;;;;;5028189;28;20221;-85
2022/12/01 06:33:57;;;;;;;38.55;25.20;;;1.70;99.90;;;;;;5009954;28;20236;-84
2022/12/01 06:36:24;;;;;;;43.47;25.63;;;2.90;99.90;;;;;;5028156;28;20201;-84
2022/12/01 06:38:51;;;;;;;35.03;23.73;;;1.90;99.90;;;;;;5027412;28;20205;-82
2022/12/01 06:41:18;;;;;;;42.67;24.77;;;2.70;99.90;;;;;;5026337;28;20205;-83
2022/12/01 06:43:46;;;;;;;45.70;26.83;;;1.90;99.90;;;;;;5027893;28;20212;-82
2022/12/01 06:46:13;;;;;;;41.60;23.85;;;3.40;99.90;;;;;;5029198;28;20212;-87
2022/12/01 06:48:40;;;;;;;45.17;25.95;;;2.10;99.90;;;;;;5015733;28;20189;-82
2022/12/01 06:51:07;;;;;;;37.33;25.42;;;2.20;99.90;;;;;;5016931;28;20230;-80
2022/12/01 06:53:38;;;;;;;37.38;27.08;;;2.40;99.90;;;;;;5025909;28;20210;-81
2022/12/01 06:56:05;;;;;;;42.35;25.77;;;2.40;99.90;;;;;;5025047;28;20202;-81
2022/12/01 06:58:33;;;;;;;36.15;23.88;;;2.40;99.90;;;;;;5023384;28;20217;-81
2022/12/01 07:01:08;;;;;;;44.20;24.63;;;2.30;99.90;;;;;;5005351;28;20261;-84
2022/12/01 07:03:35;;;;;;;46.88;26.17;;;2.30;99.90;;;;;;5035383;28;20264;-81
2022/12/01 07:06:03;;;;;;;37.83;25.70;;;2.20;99.90;;;;;;5033952;28;20252;-85
2022/12/01 07:08:31;;;;;;;39.83;26.25;;;2.20;99.90;;;;;;5010354;28;20190;-82
2022/12/01 07:11:00;;;;;;;35.53;23.05;;;2.20;99.90;;;;;;5021990;28;20559;-81
2022/12/01 07:13:28;;;;;;;39.10;25.73;;;2.30;99.90;;;;;;5024673;28;20232;-81
2022/12/01 07:16:03;;;;;;;37.88;23.48;;;2.40;99.90;;;;;;5024972;28;20268;-81
2022/12/01 07:18:31;;;;;;;35.53;21.63;;;3.10;99.90;;;;;;5023313;28;20499;-82
2022/12/01 07:21:00;;;;;;;38.95;24.08;;;2.50;99.90;;;;;;5025595;28;20209;-82
2022/12/01 07:23:30;;;;;;;42.58;25.13;;;2.30;99.90;;;;;;5022396;28;20225;-80
2022/12/01 07:25:58;;;;;;;50.25;30.63;;;2.40;99.90;;;;;;5024277;28;20208;-81
2022/12/01 07:28:27;;;;;;;46.60;25.23;;;2.40;99.90;;;;;;5010699;28;20214;-89
2022/12/01 07:31:17;;;;;;;40.03;24.98;;;2.50;99.90;;;;;;5010467;28;20222;-81
2022/12/01 07:33:45;;;;;;;42.88;22.80;;;2.40;99.90;;;;;;5025235;28;20369;-81
2022/12/01 07:36:13;;;;;;;34.85;25.80;;;2.50;99.90;;;;;;5006237;28;20229;-87
2022/12/01 07:38:40;;;;;;;42.42;24.75;;;2.50;99.90;;;;;;5024655;28;20393;-79
2022/12/01 07:41:15;;;;;;;48.55;26.17;;;3.00;99.90;;;;;;5024693;28;20214;-80
2022/12/01 07:43:42;;;;;;;44.70;26.63;;;2.50;99.90;;;;;;5007604;28;20231;-82
2022/12/01 07:46:12;;;;;;;44.35;26.75;;;2.40;99.90;;;;;;5006030;28;20211;-85
2022/12/01 07:48:48;;;;;;;47.47;27.45;;;2.30;99.90;;;;;;5007467;28;20201;-84
2022/12/01 07:51:16;;;;;;;37.30;23.95;;;2.40;99.90;;;;;;5007944;28;20305;-82
2022/12/01 07:53:49;;;;;;;38.17;24.23;;;2.50;99.90;;;;;;5024343;28;20400;-87
2022/12/01 07:56:17;;;;;;;34.35;23.35;;;2.60;99.90;;;;;;5007191;28;20197;-81
2022/12/01 07:58:44;;;;;;;36.10;22.30;;;3.20;99.90;;;;;;5021248;28;20442;-81
2022/12/01 08:01:16;;;;;;;38.50;22.23;;;3.00;99.90;;;;;;5012283;28;20206;-81
2022/12/01 08:03:44;;;;;;;40.15;24.48;;;2.90;99.90;;;;;;5008128;28;20209;-80
2022/12/01 08:06:11;;;;;;;39.50;23.45;;;3.40;99.90;;;;;;5024784;28;20208;-81
2022/12/01 08:08:40;;;;;;;36.67;21.60;;;3.90;99.90;;;;;;5013633;28;20217;-81
2022/12/01 08:11:11;;;;;;;32.90;21.05;;;3.10;99.90;;;;;;5005199;28;20449;-83
2022/12/01 08:13:40;;;;;;;37.22;24.13;;;3.10;99.90;;;;;;5026856;28;20259;-84
2022/12/01 08:16:09;;;;;;;42.40;24.65;;;4.00;99.90;;;;;;5005856;28;20289;-81
2022/12/01 08:18:38;;;;;;;41.53;24.55;;;4.20;99.90;;;;;;5025857;28;20204;-82
2022/12/01 08:21:10;;;;;;;33.40;22.83;;;3.70;99.90;;;;;;5022384;28;20205;-86
2022/12/01 08:23:38;;;;;;;40.47;24.17;;;3.00;99.90;;;;;;5023219;28;20197;-81
2022/12/01 08:26:13;;;;;;;38.15;23.77;;;3.10;99.90;;;;;;5024057;28;20220;-80
2022/12/01 08:28:41;;;;;;;37.30;23.48;;;3.30;99.90;;;;;;5024563;28;20244;-82
2022/12/01 08:31:11;;;;;;;42.90;26.40;;;3.20;99.90;;;;;;5023141;28;20225;-80
2022/12/01 08:33:40;;;;;;;40.13;23.95;;;3.10;99.90;;;;;;4994171;28;20215;-84
2022/12/01 08:36:07;;;;;;;31.13;20.48;;;4.10;99.90;;;;;;5024734;28;20197;-81
2022/12/01 08:38:35;;;;;;;44.33;24.50;;;3.90;99.90;;;;;;5006311;28;20268;-81
2022/12/01 08:41:05;;;;;;;43.50;26.23;;;3.80;99.90;;;;;;5024182;28;20421;-82
2022/12/01 08:43:32;;;;;;;41.90;24.35;;;3.30;99.90;;;;;;5024270;28;20194;-81
2022/12/01 08:46:19;;;;;;;40.05;24.65;;;3.20;99.90;;;;;;5005741;28;20217;-82
2022/12/01 08:48:49;;;;;;;46.40;27.20;;;3.10;99.90;;;;;;5026358;28;20418;-83
2022/12/01 08:51:18;;;;;;;39.25;23.10;;;3.30;99.90;;;;;;5011628;28;20264;-85
2022/12/01 08:53:47;;;;;;;47.58;26.10;;;3.90;99.90;;;;;;5004278;28;20252;-80
2022/12/01 08:56:23;;;;;;;45.78;28.75;;;3.00;99.90;;;;;;5028248;28;20205;-81
2022/12/01 08:58:50;;;;;;;42.38;24.10;;;4.10;99.90;;;;;;5028421;28;20194;-82
2022/12/01 09:01:20;;;;;;;36.38;22.30;;;3.30;99.90;;;;;;5025496;28;20545;-86
2022/12/01 09:04:03;;;;;;;36.15;24.83;;;4.10;99.90;;;;;;5020492;28;20393;-82
2022/12/01 09:06:36;;;;;;;41.50;25.25;;;4.00;99.90;;;;;;5028447;28;20209;-83
2022/12/01 09:09:03;;;;;;;49.38;28.92;;;3.20;99.90;;;;;;5028120;28;20190;-81
2022/12/01 09:11:30;;;;;;;44.85;25.88;;;3.60;99.90;;;;;;5012630;28;20437;-83
2022/12/01 09:13:59;;;;;;;46.38;27.27;;;3.10;99.90;;;;;;5028506;28;20241;-83
2022/12/01 09:16:26;;;;;;;45.55;25.98;;;3.00;99.90;;;;;;5010041;28;20437;-81
2022/12/01 09:18:54;;;;;;;45.25;29.33;;;3.10;99.90;;;;;;5010871;28;20536;-80
2022/12/01 09:21:24;;;;;;;46.03;28.05;;;3.10;99.90;;;;;;5014931;28;20199;-83
2022/12/01 09:23:52;;;;;;;45.10;28.13;;;3.30;99.90;;;;;;5019044;28;20370;-79
2022/12/01 09:26:20;;;;;;;40.95;24.10;;;3.20;99.90;;;;;;5029312;28;20232;-88
2022/12/01 09:28:51;;;;;;;43.50;25.15;;;3.20;99.90;;;;;;5020496;28;20185;-85
2022/12/01 09:31:22;;;;;;;62.67;29.55;;;4.40;99.90;;;;;;5038154;28;20225;-85
2022/12/01 09:33:58;;;;;;;40.30;26.83;;;3.10;99.90;;;;;;5022634;28;20225;-86
2022/12/01 09:36:27;;;;;;;36.78;24.35;;;3.40;99.90;;;;;;5011701;28;20504;-82
2022/12/01 09:38:54;;;;;;;37.08;24.95;;;3.30;99.90;;;;;;5012444;28;20240;-83
2022/12/01 09:41:35;;;;;;;42.58;29.10;;;3.10;99.90;;;;;;5028270;28;20201;-81
2022/12/01 09:44:12;;;;;;;42.85;25.20;;;3.00;99.90;;;;;;5013017;28;20232;-82
2022/12/01 09:46:47;;;;;;;41.90;23.95;;;2.90;99.90;;;;;;5015014;28;20213;-82
2022/12/01 09:49:23;;;;;;;43.15;26.45;;;2.90;99.90;;;;;;5027334;28;20244;-85
2022/12/01 09:51:52;;;;;;;35.45;23.80;;;3.50;99.90;;;;;;5002161;28;20220;-82
2022/12/01 09:54:20;;;;;;;40.28;24.90;;;3.10;99.90;;;;;;5015089;28;20265;-81
2022/12/01 09:56:52;;;;;;;40.05;23.23;;;3.80;99.90;;;;;;5020679;28;20214;-85
2022/12/01 09:59:23;;;;;;;41.53;25.10;;;4.10;99.90;;;;;;5015304;28;20201;-86
2022/12/01 10:02:03;;;;;;;39.35;25.92;;;3.30;99.90;;;;;;5029967;28;20197;-82
2022/12/01 10:04:41;;;;;;;45.47;29.58;;;3.00;99.90;;;;;;5030680;28;20217;-82
2022/12/01 10:07:21;;;;;;;38.33;25.20;;;3.70;99.90;;;;;;5032265;28;20370;-82
2022/12/01 10:10:04;;;;;;;39.83;24.38;;;3.20;99.90;;;;;;5015608;28;20220;-80
2022/12/01 10:12:35;;;;;;;36.33;23.77;;;3.10;99.90;;;;;;5010633;28;20321;-81
2022/12/01 10:15:32;;;;;;;34.92;22.70;;;3.10;99.90;;;;;;5018174;28;20206;-85
2022/12/01 10:18:16;;;;;;;38.80;24.20;;;3.00;99.90;;;;;;4999664;28;20204;-81
2022/12/01 10:21:14;;;;;;;33.78;21.48;;;3.00;99.90;;;;;;5030454;28;20198;-83
2022/12/01 10:23:51;;;;;;;43.00;24.45;;;2.90;99.90;;;;;;5009346;28;20201;-81
2022/12/01 10:26:36;;;;;;;36.00;22.95;;;3.00;99.90;;;;;;5026210;28;20201;-83
2022/12/01 10:29:15;;;;;;;36.60;24.60;;;3.00;99.90;;;;;;5022136;28;20208;-86
2022/12/01 10:31:53;;;;;;;38.42;23.02;;;3.00;99.90;;;;;;5007869;28;20276;-85
2022/12/01 10:34:22;;;;;;;39.28;25.42;;;3.00;99.90;;;;;;5020342;28;20189;-84
2022/12/01 10:36:52;;;;;;;42.55;24.92;;;3.00;99.90;;;;;;5010881;28;20302;-83
2022/12/01 10:39:33;;;;;;;33.45;21.88;;;3.10;99.90;;;;;;5009423;28;20202;-82
2022/12/01 10:42:06;;;;;;;39.97;24.23;;;3.10;99.90;;;;;;5023481;28;20201;-87
2022/12/01 10:44:34;;;;;;;41.17;22.08;;;3.20;99.90;;;;;;5027388;28;20277;-83
2022/12/01 10:47:10;;;;;;;40.72;22.02;;;3.00;99.90;;;;;;5013071;28;20236;-83
2022/12/01 10:49:39;;;;;;;33.75;23.35;;;3.00;99.90;;;;;;5013393;28;20205;-83
2022/12/01 10:52:33;;;;;;;40.72;23.40;;;3.60;99.90;;;;;;5010939;28;20221;-82
2022/12/01 10:55:21;;;;;;;40.28;24.05;;;3.10;99.90;;;;;;5027414;28;20235;-82
2022/12/01 10:57:49;;;;;;;31.40;22.98;;;3.20;99.90;;;;;;5000539;28;20205;-82
2022/12/01 11:00:23;;;;;;;38.08;22.23;;;3.10;99.90;;;;;;5024269;28;20224;-83
2022/12/01 11:03:31;;;;;;;37.35;24.15;;;3.00;99.90;;;;;;5024517;28;20244;-82
2022/12/01 11:06:01;;;;;;;40.60;22.83;;;3.60;99.90;;;;;;5015099;28;20543;-82
2022/12/01 11:09:01;;;;;;;34.17;22.17;;;3.00;99.90;;;;;;5030132;28;20304;-87
2022/12/01 11:11:33;;;;;;;30.88;20.23;;;3.00;99.90;;;;;;5032456;28;20213;-83
2022/12/01 11:14:15;;;;;;;32.05;21.60;;;3.10;99.90;;;;;;5014610;28;20214;-83
2022/12/01 11:16:44;;;;;;;40.33;23.50;;;3.10;99.90;;;;;;5030593;28;20216;-84
2022/12/01 11:19:29;;;;;;;27.33;19.08;;;3.30;99.90;;;;;;5008334;28;20205;-83
2022/12/01 11:22:00;;;;;;;32.10;18.35;;;3.30;99.90;;;;;;5003785;28;20204;-84
2022/12/01 11:24:43;;;;;;;30.02;20.63;;;3.40;99.90;;;;;;5024526;28;20236;-84
2022/12/01 11:27:17;;;;;;;34.95;18.95;;;3.30;99.90;;;;;;5029064;28;20198;-82
2022/12/01 11:29:50;;;;;;;29.38;20.60;;;3.40;99.90;;;;;;5013556;28;20268;-86
2022/12/01 11:32:29;;;;;;;30.70;20.42;;;3.20;99.90;;;;;;5012566;28;20222;-87
2022/12/01 11:35:18;;;;;;;35.28;22.13;;;3.30;99.90;;;;;;4995855;28;20193;-83
2022/12/01 11:37:49;;;;;;;28.65;18.92;;;3.30;99.90;;;;;;5006508;28;20213;-83
2022/12/01 11:40:49;;;;;;;27.05;17.80;;;3.30;99.90;;;;;;5024070;28;20193;-82
2022/12/01 11:43:38;;;;;;;31.70;19.58;;;3.20;99.90;;;;;;5025646;28;20217;-85
2022/12/01 11:46:14;;;;;;;25.05;18.25;;;3.10;99.90;;;;;;5026302;28;20436;-83
2022/12/01 11:49:02;;;;;;;25.92;16.80;;;3.50;99.90;;;;;;5026203;28;20217;-85
2022/12/01 11:51:36;;;;;;;23.42;17.98;;;3.70;99.90;;;;;;5013209;28;20233;-85
2022/12/01 11:54:17;;;;;;;28.75;17.17;;;3.40;99.90;;;;;;5021461;28;20194;-85
2022/12/01 11:56:53;;;;;;;30.88;18.98;;;3.20;99.90;;;;;;5022627;28;20477;-86
2022/12/01 11:59:43;;;;;;;28.65;19.55;;;4.30;99.90;;;;;;5029235;28;20190;-82
2022/12/01 12:02:17;;;;;;;24.98;18.45;;;3.90;99.90;;;;;;5033614;28;20209;-83
2022/12/01 12:05:14;;;;;;;22.80;13.05;;;3.30;99.90;;;;;;5018703;28;20186;-89
2022/12/01 12:08:16;;;;;;;21.52;14.18;;;3.20;99.90;;;;;;5011250;28;20192;-86
2022/12/01 12:11:11;;;;;;;26.90;17.13;;;3.10;99.90;;;;;;5023800;28;20224;-84
2022/12/01 12:13:58;;;;;;;24.58;16.88;;;3.10;99.90;;;;;;5028317;28;20198;-82
2022/12/01 12:16:50;;;;;;;29.88;19.70;;;3.10;99.90;;;;;;5025880;28;20195;-83
2022/12/01 12:19:39;;;;;;;32.40;20.20;;;3.20;99.90;;;;;;5007945;28;20207;-85
2022/12/01 12:23:09;;;;;;;26.33;18.65;;;3.20;99.90;;;;;;5017789;28;20197;-85
2022/12/01 12:26:03;;;;;;;29.35;16.23;;;3.10;99.90;;;;;;5017644;28;20197;-87
2022/12/01 12:36:11;;;;;;;32.00;19.08;;;2.90;99.90;;;;;;5019183;28;20205;-82
2022/12/01 12:43:05;;;;;;;30.42;19.27;;;3.30;99.90;;;;;;5001247;28;20198;-82
2022/12/01 12:46:06;;;;;;;;;;;;;;;;;;;;;
2022/12/01 12:48:57;;;;;;;28.58;17.17;;;3.30;99.90;;;;;;5034800;28;20193;-82
2022/12/01 12:51:54;;;;;;;31.55;19.13;;;3.20;99.90;;;;;;5021228;28;20240;-84
2022/12/01 12:54:56;;;;;;;32.53;18.00;;;3.20;99.90;;;;;;5035809;28;20255;-83
2022/12/01 12:57:45;;;;;;;34.63;22.15;;;3.30;99.90;;;;;;4974760;28;20206;-82
2022/12/01 13:00:16;;;;;;;31.15;22.17;;;3.50;99.90;;;;;;5013111;28;20202;-84
2022/12/01 13:02:52;;;;;;;33.65;21.73;;;3.40;99.90;;;;;;5037451;28;20477;-88
2022/12/01 13:05:31;;;;;;;31.80;19.80;;;3.30;99.90;;;;;;5019041;28;20177;-83
2022/12/01 13:08:01;;;;;;;28.23;17.33;;;3.30;99.90;;;;;;5018627;28;20205;-84
2022/12/01 13:11:00;;;;;;;29.88;19.17;;;4.00;99.90;;;;;;5035238;28;20206;-87
2022/12/01 13:14:00;;;;;;;31.65;21.27;;;3.30;99.90;;;;;;5015657;28;20293;-81
2022/12/01 13:16:36;;;;;;;36.38;24.02;;;3.10;99.90;;;;;;5018161;28;20247;-82
2022/12/01 13:19:07;;;;;;;26.17;17.23;;;4.00;99.90;;;;;;5034814;28;20201;-83
2022/12/01 13:21:41;;;;;;;27.35;17.80;;;3.20;99.90;;;;;;5014280;28;20382;-86
2022/12/01 13:24:13;;;;;;;31.85;21.17;;;3.40;99.90;;;;;;5030792;28;20213;-87
2022/12/01 13:26:53;;;;;;;28.65;18.15;;;3.00;99.90;;;;;;5019873;28;20217;-85
2022/12/01 13:29:23;;;;;;;28.60;18.00;;;3.40;99.90;;;;;;5022832;28;20204;-90
2022/12/01 13:31:53;;;;;;;28.05;18.60;;;3.50;99.90;;;;;;5012925;28;20316;-86